DW2380 Paimio FI current weather conditions

sailwx.info

Wind from 360 at 3 knots gusting 6

Air temperature 7.8° C
Dewpoint 1.4° C

Last reported at 2015-May-05 05:41 UTC.
Time now 2015-May-05 06:13 UTC

Location: N 60°28' E 022°40'.
View on Google Maps.

See reports from other nearby stations

  
Tides and Currents Weather Stations Pressure Air Temp Water Temp Dewpoint Dewpoint Depression Visibility Wind Speed Wind Dir Waves Ship Positions
date/time (UTC)wind fromknots sea level pressurealtimeterstation pressurevisibilityair tempwater tempwave heightnotes
2015-May-05 05:41 360 3 gusting 6 7.8
2015-May-05 05:26 360 3 gusting 6 7.2
2015-May-05 05:11 360 1 gusting 6 7.2
2015-May-05 04:56 360 4 gusting 8 7.2
2015-May-05 04:41 360 2 gusting 6 7.2
2015-May-05 04:26 360 2 gusting 6 7.2
2015-May-05 04:11 360 3 gusting 6 7.2
2015-May-05 03:56 360 3 gusting 9 7.2
2015-May-05 03:41 360 3 gusting 8 7.2
2015-May-05 03:26 360 5 gusting 9 7.2
2015-May-05 03:09 360 4 gusting 7 6.7
2015-May-05 02:54 360 4 gusting 9 6.7
2015-May-05 02:39 360 4 gusting 8 6.7
2015-May-05 02:24 360 4 gusting 9 6.7
2015-May-05 02:09 360 5 gusting 7 6.7
2015-May-05 01:54 360 4 gusting 10 6.7
2015-May-05 01:39 360 4 gusting 8 6.7
2015-May-05 01:24 360 5 gusting 10 6.7
2015-May-05 01:09 360 6 gusting 10 6.1
2015-May-05 00:54 360 6 gusting 11 6.1
2015-May-05 00:39 360 5 gusting 11 6.1
2015-May-05 00:24 360 4 gusting 10 6.1
2015-May-05 00:09 360 5 gusting 8 6.7
2015-May-04 23:54 360 6 gusting 11 6.7
2015-May-04 23:39 360 5 gusting 11 6.7
2015-May-04 23:24 360 5 gusting 12 6.7
2015-May-04 23:09 360 6 gusting 12 6.7
2015-May-04 22:54 360 5 gusting 12 6.7
2015-May-04 22:39 360 6 gusting 12 6.7
2015-May-04 22:24 360 5 gusting 12 6.7
2015-May-04 22:09 360 6 gusting 11 6.1
2015-May-04 21:54 360 3 gusting 9 6.1
2015-May-04 21:39 360 3 gusting 8 6.1
2015-May-04 21:24 360 4 gusting 6 6.1
2015-May-04 21:09 360 2 gusting 5 6.1
2015-May-04 20:54 360 4 gusting 9 6.1
2015-May-04 20:39 360 4 gusting 7 6.7
2015-May-04 20:24 360 6 gusting 10 6.7
2015-May-04 20:09 360 6 gusting 11 6.7
2015-May-04 19:54 360 3 gusting 10 6.7
2015-May-04 19:39 360 2 gusting 6 6.7
2015-May-04 19:24 360 6.7
2015-May-04 19:08 360 6.7
2015-May-04 18:53 360 1 gusting 5 7.2
2015-May-04 18:38 360 0 gusting 2 7.2
2015-May-04 18:23 360 0 gusting 3 7.8
2015-May-04 18:08 360 1 gusting 5 8.3
2015-May-04 17:53 360 6 gusting 9 8.9
2015-May-04 17:38 360 3 gusting 9 8.9
2015-May-04 17:22 360 2 gusting 7 9.4
2015-May-04 17:07 360 3 gusting 7 9.4
2015-May-04 16:52 360 2 gusting 5 10.0
2015-May-04 16:37 360 2 gusting 7 10.0
2015-May-04 16:22 360 4 gusting 12 10.0
2015-May-04 16:07 360 6 gusting 10 10.0
2015-May-04 15:51 360 6 gusting 12 10.6
2015-May-04 15:36 360 6 gusting 13 10.6
2015-May-04 15:21 360 6 gusting 16 10.6
2015-May-04 15:06 360 10 gusting 13 10.6
2015-May-04 14:51 360 6 gusting 11 11.7
2015-May-04 14:36 360 6 gusting 11 11.1
2015-May-04 14:21 360 5 gusting 10 11.1
2015-May-04 14:06 360 9 gusting 13 11.1
2015-May-04 13:51 360 6 gusting 11 11.7
2015-May-04 13:36 360 5 gusting 12 11.7
2015-May-04 13:21 360 5 gusting 13 11.1
2015-May-04 13:06 360 4 gusting 16 11.7
2015-May-04 12:51 360 11 gusting 18 12.2
2015-May-04 12:34 360 5 gusting 11 12.2
2015-May-04 12:19 360 3 gusting 11 11.7
2015-May-04 12:04 360 3 gusting 8 12.2
2015-May-04 11:49 360 6 gusting 12 11.1
2015-May-04 11:34 360 6 gusting 10 12.2
2015-May-04 11:19 360 3 gusting 10 11.7
2015-May-04 11:04 360 6 gusting 10 11.7
2015-May-04 10:48 360 2 gusting 11 11.7
2015-May-04 10:33 360 11.7
2015-May-04 10:18 360 4 gusting 13 11.7
2015-May-04 10:03 360 4 gusting 13 12.2
2015-May-04 09:48 360 1 gusting 7 11.1
2015-May-04 09:33 360 5 gusting 11 11.7
2015-May-04 09:18 360 6 gusting 10 11.7
2015-May-04 09:02 360 6 gusting 11 11.7
2015-May-04 08:47 360 4 gusting 7 10.6
2015-May-04 08:32 360 6 gusting 10 10.6
2015-May-04 08:17 360 2 gusting 9 10.6
2015-May-04 08:02 360 3 gusting 8 10.0
2015-May-04 07:47 360 4 gusting 11 10.0
2015-May-04 07:31 360 2 gusting 9 9.4
2015-May-04 07:16 360 4 gusting 9 9.4
2015-May-04 07:01 360 4 gusting 8 9.4
2015-May-04 06:46 360 3 gusting 7 8.9
2015-May-04 06:32 360 0 gusting 4 7.8
2015-May-04 06:16 360 2 gusting 5 6.7
2015-May-04 06:01 360 6.1
2015-May-04 05:46 360 5.0
2015-May-04 05:31 360 3.9
2015-May-04 05:16 360 2.8
2015-May-04 04:59 360 1.7
2015-May-04 04:46 360 1.1
2015-May-04 04:29 360 -0.0
2015-May-04 04:14 360 -1.1
2015-May-04 03:59 360 -1.7
2015-May-04 03:44 360 -2.2
2015-May-04 03:28 360 0 gusting 1 -2.8
2015-May-04 03:13 360 -3.3
2015-May-04 02:58 360 -3.3
2015-May-04 02:43 360 -3.9
2015-May-04 02:28 360 -3.9
2015-May-04 02:13 360 -3.9
2015-May-04 01:58 360 -3.9
2015-May-04 01:43 360 -3.3
2015-May-04 01:28 360 -3.3
2015-May-04 01:13 360 -3.3
2015-May-04 00:58 360 -3.3
2015-May-04 00:43 360 -3.3
2015-May-04 00:28 360 -3.3
2015-May-04 00:13 360 -2.8
2015-May-03 23:58 360 -2.8
2015-May-03 23:43 360 -2.8
2015-May-03 23:28 360 -2.8
2015-May-03 23:13 360 -2.2
2015-May-03 22:57 360 -2.2
2015-May-03 22:42 360 -2.2
2015-May-03 22:27 360 -1.7
2015-May-03 22:12 360 -1.7
2015-May-03 21:57 360 -1.7
2015-May-03 21:42 360 -1.7
2015-May-03 21:27 360 -1.1
2015-May-03 21:12 360 -1.1
2015-May-03 20:57 360 -0.6
2015-May-03 20:42 360 -0.6
2015-May-03 20:27 360 -0.6
2015-May-03 20:12 360 0.6
2015-May-03 19:57 360 -0.0
2015-May-03 19:42 360 1.1
2015-May-03 19:27 360 2.2
2015-May-03 19:11 360 1 gusting 3 2.8
2015-May-03 18:56 360 2 gusting 3 3.3
2015-May-03 18:41 360 2 gusting 3 3.9
2015-May-03 18:26 360 1 gusting 4 4.4
2015-May-03 18:11 360 2 gusting 4 5.6
2015-May-03 17:56 360 3 gusting 7 6.1
2015-May-03 17:41 360 3 gusting 7 6.7
2015-May-03 17:26 360 3 gusting 6 7.2
2015-May-03 17:11 360 4 gusting 9 7.2
2015-May-03 16:56 360 6 gusting 11 7.2
2015-May-03 16:41 360 7 gusting 13 7.8
2015-May-03 16:26 360 7 gusting 13 8.3
2015-May-03 16:09 360 6 gusting 13 8.3
2015-May-03 15:54 360 7 gusting 14 8.9
2015-May-03 15:39 360 9 gusting 13 9.4
2015-May-03 15:24 360 8 gusting 15 9.4
2015-May-03 15:09 360 9 gusting 14 9.4
2015-May-03 14:54 360 8 gusting 13 10.0
2015-May-03 14:38 360 8 gusting 13 10.0
2015-May-03 14:24 360 6 gusting 13 10.0
2015-May-03 14:08 360 8 gusting 13 10.0
2015-May-03 13:53 360 9 gusting 14 8.9
2015-May-03 13:38 360 9 gusting 16 8.9
2015-May-03 13:23 360 12 gusting 19 8.9
2015-May-03 13:08 360 7 gusting 15 9.4
2015-May-03 12:52 360 9 gusting 17 10.0
2015-May-03 12:37 360 11 gusting 16 10.6
2015-May-03 12:22 360 8 gusting 19 10.6
2015-May-03 12:07 360 11 gusting 17 10.6
2015-May-03 11:52 360 12 gusting 16 10.6
2015-May-03 11:37 360 12 gusting 18 10.6
2015-May-03 11:22 360 7 gusting 19 10.0
2015-May-03 11:06 360 10 gusting 17 11.1
2015-May-03 10:51 360 9 gusting 13 9.4
2015-May-03 10:36 360 12 gusting 18 10.0
2015-May-03 10:21 360 6 gusting 15 9.4
2015-May-03 10:06 360 9 gusting 14 10.0
2015-May-03 09:51 360 3 gusting 6 8.3
2015-May-03 09:36 360 0 gusting 4 8.3
2015-May-03 09:21 360 4 gusting 9 8.3
2015-May-03 09:06 360 2 gusting 5 10.0
2015-May-03 08:51 360 5 gusting 9 9.4
2015-May-03 08:36 360 4 gusting 12 8.9
2015-May-03 08:21 360 6 gusting 13 8.9
2015-May-03 08:04 360 5 gusting 12 9.4
2015-May-03 07:49 360 6 gusting 12 8.9
2015-May-03 07:34 360 2 gusting 12 8.9
2015-May-03 07:19 360 7 gusting 13 8.3
2015-May-03 07:04 360 7 gusting 11 8.3
2015-May-03 06:49 360 3 gusting 9 7.8
2015-May-03 06:33 360 6 gusting 11 7.2
2015-May-03 06:18 360 4 gusting 11 6.7
2015-May-03 06:03 360 7 gusting 12 6.1